Time;durP1;ratioP1;P1;durP2;ratioP2;P2;SDS_P1;SDS_P2;PMS_P1;PMS_P2;Temp;Humidity;BMP_temperature;BMP_pressure;BME280_temperature;BME280_humidity;BME280_pressure;Samples;Min_cycle;Max_cycle;Signal;HPM_P1;HPM_P2
2023/01/26 00:01:13;;;;;;;3.35;2.00;;;17.70;58.00;;;;;;5053329;28;20060;-72
2023/01/26 00:03:40;;;;;;;2.83;2.15;;;17.60;58.00;;;;;;5052957;28;20053;-72
2023/01/26 00:06:10;;;;;;;3.25;2.70;;;17.70;58.10;;;;;;5052994;28;20492;-72
2023/01/26 00:08:37;;;;;;;3.50;2.50;;;17.60;58.00;;;;;;5052544;28;20048;-72
2023/01/26 00:11:05;;;;;;;2.88;2.35;;;17.60;58.00;;;;;;5054128;28;20092;-72
2023/01/26 00:13:32;;;;;;;2.92;2.53;;;17.60;58.00;;;;;;5052878;28;20060;-72
2023/01/26 00:16:01;;;;;;;3.42;2.30;;;17.60;58.00;;;;;;5034174;28;20053;-72
2023/01/26 00:18:28;;;;;;;2.92;2.45;;;17.60;58.10;;;;;;5032748;28;20050;-72
2023/01/26 00:20:56;;;;;;;2.95;1.42;;;17.50;58.00;;;;;;5034066;28;20442;-72
2023/01/26 00:23:24;;;;;;;2.92;1.30;;;17.50;58.10;;;;;;5034000;28;20049;-72
2023/01/26 00:25:51;;;;;;;2.50;1.92;;;17.50;58.00;;;;;;5034006;28;20048;-72
2023/01/26 00:28:18;;;;;;;3.10;2.13;;;17.50;58.00;;;;;;5034503;28;20050;-72
2023/01/26 00:30:44;;;;;;;3.45;2.70;;;17.50;58.70;;;;;;5032813;28;20053;-72
2023/01/26 00:33:13;;;;;;;2.50;1.20;;;17.50;58.00;;;;;;5036404;28;20057;-72
2023/01/26 00:35:43;;;;;;;3.10;2.17;;;17.50;58.70;;;;;;5035926;28;20057;-72
2023/01/26 00:38:10;;;;;;;3.03;2.13;;;17.40;57.80;;;;;;5047248;28;20052;-72
2023/01/26 00:40:37;;;;;;;2.30;1.80;;;17.50;57.90;;;;;;5052095;28;20088;-72
2023/01/26 00:43:04;;;;;;;2.78;2.20;;;17.50;57.90;;;;;;5032555;28;20053;-72
2023/01/26 00:45:31;;;;;;;2.55;1.90;;;17.50;57.70;;;;;;5032667;28;20049;-72
2023/01/26 00:47:59;;;;;;;2.55;1.83;;;17.60;57.90;;;;;;5037230;28;20061;-72
2023/01/26 00:50:27;;;;;;;2.35;1.40;;;17.50;57.80;;;;;;5033173;28;20057;-72
2023/01/26 00:52:54;;;;;;;2.50;1.95;;;17.60;57.70;;;;;;5033568;28;20045;-72
2023/01/26 00:55:21;;;;;;;3.25;2.13;;;17.60;57.70;;;;;;5032250;28;20058;-72
2023/01/26 00:57:49;;;;;;;2.88;2.20;;;17.70;57.60;;;;;;5033347;28;20052;-72
2023/01/26 01:00:17;;;;;;;2.03;0.77;;;17.80;57.50;;;;;;5034501;28;20079;-72
2023/01/26 01:02:44;;;;;;;2.92;2.13;;;17.80;57.50;;;;;;5034096;28;20091;-72
2023/01/26 01:05:12;;;;;;;2.22;2.00;;;17.80;57.30;;;;;;5033105;28;20045;-73
2023/01/26 01:07:40;;;;;;;2.08;0.75;;;17.90;57.30;;;;;;5032616;28;20052;-72
2023/01/26 01:10:08;;;;;;;2.92;1.83;;;17.90;57.90;;;;;;5032784;28;20049;-72
2023/01/26 01:12:35;;;;;;;2.47;1.77;;;17.90;57.20;;;;;;5033253;28;20099;-72
2023/01/26 01:15:02;;;;;;;2.65;2.00;;;18.00;57.20;;;;;;5031657;28;20053;-72
2023/01/26 01:17:29;;;;;;;2.40;1.55;;;18.00;57.20;;;;;;5031698;28;20056;-72
2023/01/26 01:19:56;;;;;;;2.50;1.80;;;18.00;57.10;;;;;;5031696;28;20045;-72
2023/01/26 01:22:23;;;;;;;2.20;1.63;;;18.10;57.10;;;;;;5033142;28;20052;-72
2023/01/26 01:24:51;;;;;;;2.67;1.83;;;18.20;57.00;;;;;;5032753;28;20509;-72
2023/01/26 01:27:18;;;;;;;2.20;1.70;;;18.20;56.90;;;;;;5032028;28;20049;-72
2023/01/26 01:29:45;;;;;;;2.40;1.80;;;18.30;56.80;;;;;;5032858;28;20053;-72
2023/01/26 01:32:12;;;;;;;2.35;1.63;;;18.30;56.70;;;;;;5037557;28;20045;-72
2023/01/26 01:34:38;;;;;;;2.13;1.02;;;18.40;56.60;;;;;;5031185;28;20414;-72
2023/01/26 01:37:05;;;;;;;2.83;2.00;;;18.50;56.60;;;;;;5032555;28;20057;-72
2023/01/26 01:39:32;;;;;;;2.67;1.45;;;18.50;56.50;;;;;;5031527;28;20053;-72
2023/01/26 01:42:01;;;;;;;2.78;1.80;;;18.60;57.10;;;;;;5032281;28;20052;-72
2023/01/26 01:44:28;;;;;;;2.55;1.80;;;18.60;56.40;;;;;;5031185;28;20057;-72
2023/01/26 01:46:57;;;;;;;2.38;1.70;;;18.60;56.30;;;;;;5032398;28;20060;-72
2023/01/26 01:49:28;;;;;;;2.30;1.50;;;18.60;56.30;;;;;;5031909;28;20521;-72
2023/01/26 01:51:58;;;;;;;2.50;1.95;;;18.60;56.30;;;;;;5039766;28;20525;-72
2023/01/26 01:54:30;;;;;;;1.70;1.35;;;18.60;56.40;;;;;;5031948;28;20132;-72
2023/01/26 01:57:02;;;;;;;2.10;1.67;;;18.60;56.40;;;;;;5035185;28;20041;-72
2023/01/26 01:59:30;;;;;;;2.15;1.67;;;18.60;56.40;;;;;;5039296;28;20048;-72
2023/01/26 02:01:57;;;;;;;2.08;1.60;;;18.50;56.40;;;;;;5050799;28;20128;-72
2023/01/26 02:04:26;;;;;;;2.30;1.67;;;18.50;56.50;;;;;;5041119;28;20060;-72
2023/01/26 02:06:55;;;;;;;2.13;1.38;;;18.50;56.50;;;;;;5031981;28;20053;-72
2023/01/26 02:12:16;;;;;;;1.67;0.60;;;18.40;56.50;;;;;;5035746;28;20401;-72
2023/01/26 02:14:43;;;;;;;1.27;0.55;;;18.40;56.60;;;;;;5050837;28;20387;-72
2023/01/26 02:17:10;;;;;;;2.45;1.45;;;18.30;56.60;;;;;;5035346;28;20095;-72
2023/01/26 02:19:47;;;;;;;2.10;1.55;;;18.30;56.60;;;;;;5031394;28;20057;-72
2023/01/26 02:22:21;;;;;;;2.40;1.60;;;18.30;56.70;;;;;;5031832;28;20046;-73
2023/01/26 02:24:49;;;;;;;2.15;1.55;;;18.30;56.70;;;;;;5037434;28;20049;-72
2023/01/26 02:27:17;;;;;;;1.98;1.45;;;18.20;56.70;;;;;;5050721;28;20513;-72
2023/01/26 02:29:44;;;;;;;1.98;1.50;;;18.20;56.80;;;;;;5051752;28;20041;-72
2023/01/26 02:32:11;;;;;;;2.00;1.67;;;18.10;56.90;;;;;;5050706;28;20497;-72
2023/01/26 02:34:38;;;;;;;1.95;0.73;;;18.10;57.00;;;;;;5051444;28;20052;-73
2023/01/26 02:37:05;;;;;;;2.28;1.65;;;18.00;57.00;;;;;;5050544;28;20102;-72
2023/01/26 02:39:44;;;;;;;2.47;1.75;;;18.00;57.10;;;;;;5048640;28;20067;-72
2023/01/26 02:44:54;;;;;;;1.85;0.63;;;17.90;57.20;;;;;;5037271;28;20560;-72
2023/01/26 02:47:21;;;;;;;2.40;1.42;;;17.90;57.20;;;;;;5050763;28;20045;-72
2023/01/26 02:49:47;;;;;;;2.20;1.52;;;17.80;57.20;;;;;;5050417;28;20056;-72
2023/01/26 02:52:14;;;;;;;2.05;1.52;;;17.80;57.30;;;;;;5051395;28;20059;-73
2023/01/26 02:57:26;;;;;;;2.38;1.90;;;17.80;57.40;;;;;;5030364;28;20119;-73
2023/01/26 02:59:54;;;;;;;1.80;0.98;;;17.70;57.40;;;;;;5031406;28;20417;-72
2023/01/26 03:02:21;;;;;;;2.17;1.58;;;17.70;57.50;;;;;;5030602;28;20057;-72
2023/01/26 03:04:48;;;;;;;2.03;0.77;;;17.70;57.50;;;;;;5029957;28;20108;-72
2023/01/26 03:07:15;;;;;;;2.22;2.03;;;17.60;57.50;;;;;;5030409;28;20053;-72
2023/01/26 03:09:42;;;;;;;2.13;1.38;;;17.60;57.60;;;;;;5030042;28;20080;-72
2023/01/26 03:12:09;;;;;;;2.08;1.65;;;17.60;57.60;;;;;;5031255;28;20494;-73
2023/01/26 03:14:36;;;;;;;2.30;1.00;;;17.60;57.60;;;;;;5031182;28;20609;-72
2023/01/26 03:17:04;;;;;;;2.20;1.70;;;17.60;58.30;;;;;;5029938;28;20060;-73
2023/01/26 03:27:49;;;;;;;1.95;1.27;;;17.60;57.60;;;;;;5044501;28;20053;-72
2023/01/26 03:30:18;;;;;;;2.20;1.77;;;17.60;57.50;;;;;;5008305;28;20052;-72
2023/01/26 03:32:46;;;;;;;1.67;1.38;;;17.60;57.40;;;;;;4976550;28;111943;-72
2023/01/26 03:35:14;;;;;;;1.98;1.45;;;17.70;57.40;;;;;;4953131;28;20064;-72
2023/01/26 03:37:42;;;;;;;2.20;1.58;;;17.70;57.40;;;;;;5033936;28;20107;-73
2023/01/26 03:56:38;;;;;;;1.35;0.30;;;17.90;57.00;;;;;;5034405;28;20434;-73
2023/01/26 03:59:08;;;;;;;1.95;1.33;;;18.00;56.80;;;;;;5033164;28;20058;-72
2023/01/26 04:01:36;;;;;;;1.95;1.50;;;18.10;56.80;;;;;;5038149;28;20037;-73
2023/01/26 04:09:36;;;;;;;1.73;0.40;;;18.30;56.50;;;;;;5052744;28;20199;-72
2023/01/26 04:12:04;;;;;;;1.77;0.60;;;18.40;56.40;;;;;;5049266;28;20062;-73
2023/01/26 04:22:45;;;;;;;1.88;1.25;;;18.60;56.20;;;;;;5033991;28;20054;-72
2023/01/26 04:25:15;;;;;;;1.70;1.17;;;18.60;56.20;;;;;;5042565;28;20060;-73
2023/01/26 04:27:43;;;;;;;1.50;0.40;;;18.60;56.20;;;;;;5054132;28;20049;-73
2023/01/26 04:30:13;;;;;;;1.83;1.08;;;18.60;56.30;;;;;;5034123;28;20061;-72
2023/01/26 04:32:40;;;;;;;1.42;0.40;;;18.50;56.20;;;;;;5051268;28;20060;-72
2023/01/26 04:35:10;;;;;;;2.10;1.60;;;18.50;56.30;;;;;;5052448;28;20052;-72
2023/01/26 04:37:37;;;;;;;;;;;18.50;56.40;;;;;;5052184;28;20045;-72
2023/01/26 04:40:05;;;;;;;1.60;0.40;;;18.50;56.40;;;;;;5033918;28;19925;-72
2023/01/26 04:42:32;;;;;;;1.88;1.35;;;18.40;56.40;;;;;;5033643;28;20057;-73
2023/01/26 04:44:59;;;;;;;1.60;1.10;;;18.40;56.50;;;;;;5033695;28;20045;-73
2023/01/26 04:47:26;;;;;;;1.77;1.35;;;18.40;56.60;;;;;;5033560;28;20053;-73
2023/01/26 04:49:53;;;;;;;1.70;1.33;;;18.30;56.60;;;;;;5032837;28;20045;-72
2023/01/26 04:52:21;;;;;;;1.80;1.50;;;18.30;56.70;;;;;;5032403;28;20057;-72
2023/01/26 04:54:48;;;;;;;1.48;0.77;;;18.30;56.70;;;;;;5033225;28;20450;-73
2023/01/26 04:57:15;;;;;;;1.58;1.23;;;18.20;56.70;;;;;;5031722;28;20069;-73
2023/01/26 04:59:42;;;;;;;2.00;1.80;;;18.20;56.80;;;;;;5032329;28;20568;-72
2023/01/26 05:02:09;;;;;;;1.73;1.17;;;18.20;56.80;;;;;;5043260;28;20044;-73
2023/01/26 05:04:36;;;;;;;1.40;0.45;;;18.10;56.80;;;;;;5052916;28;20413;-72
2023/01/26 05:07:03;;;;;;;1.77;1.38;;;18.10;56.90;;;;;;5045070;28;20116;-73
2023/01/26 05:09:31;;;;;;;2.45;2.15;;;18.00;57.00;;;;;;5031876;28;20046;-72
2023/01/26 05:12:32;;;;;;;1.38;0.43;;;18.00;57.10;;;;;;5031979;28;20045;-72
2023/01/26 05:14:45;;;;;;;1.60;1.30;;;18.00;57.10;;;;;;5031625;28;20045;-72
2023/01/26 05:17:12;;;;;;;2.03;1.52;;;17.90;57.20;;;;;;5032711;28;20042;-72
2023/01/26 05:19:39;;;;;;;1.70;1.30;;;17.90;57.20;;;;;;5033042;28;20042;-72
2023/01/26 05:22:06;;;;;;;1.80;1.65;;;17.90;57.30;;;;;;5031798;28;20054;-72
2023/01/26 05:24:34;;;;;;;1.77;1.02;;;17.80;57.40;;;;;;5045699;28;20103;-73
2023/01/26 05:29:49;;;;;;;1.48;1.00;;;17.80;57.50;;;;;;5032770;28;20518;-73
2023/01/26 05:32:16;;;;;;;1.73;1.40;;;17.70;57.40;;;;;;5031580;28;20089;-73
2023/01/26 05:34:43;;;;;;;1.45;0.40;;;17.70;57.50;;;;;;5039717;28;20048;-72
2023/01/26 05:37:10;;;;;;;1.38;0.32;;;17.70;57.50;;;;;;5049560;28;20060;-72
2023/01/26 05:39:38;;;;;;;1.02;0.32;;;17.70;57.60;;;;;;5051970;28;20064;-72
2023/01/26 05:42:05;;;;;;;1.98;1.45;;;17.60;57.60;;;;;;5050839;28;20053;-72
2023/01/26 05:44:32;;;;;;;1.33;0.45;;;17.60;57.60;;;;;;5051268;28;20053;-72
2023/01/26 05:46:59;;;;;;;1.17;0.32;;;17.60;57.60;;;;;;5042465;28;20410;-72
2023/01/26 05:49:26;;;;;;;1.58;0.50;;;17.60;57.60;;;;;;5032356;28;20061;-72
2023/01/26 05:51:53;;;;;;;1.85;0.60;;;17.60;57.60;;;;;;5032471;28;20050;-72
2023/01/26 05:54:20;;;;;;;1.00;0.40;;;17.60;57.60;;;;;;5047449;28;20106;-72
2023/01/26 05:56:48;;;;;;;1.67;1.42;;;17.60;57.50;;;;;;5042881;28;20089;-72
2023/01/26 05:59:15;;;;;;;1.50;0.95;;;17.70;57.50;;;;;;5032015;28;20067;-72
2023/01/26 06:01:42;;;;;;;1.48;1.20;;;17.70;57.50;;;;;;5031113;28;20107;-72
2023/01/26 06:04:09;;;;;;;1.48;0.38;;;17.70;57.40;;;;;;5035605;28;20068;-73
2023/01/26 06:06:36;;;;;;;1.85;1.48;;;17.80;57.30;;;;;;5049249;28;20069;-73
2023/01/26 06:09:03;;;;;;;1.23;0.40;;;17.80;57.20;;;;;;5032282;28;20053;-73
2023/01/26 06:11:31;;;;;;;1.33;1.17;;;17.90;57.20;;;;;;5030195;28;20041;-72
2023/01/26 06:14:00;;;;;;;1.40;0.82;;;18.00;57.10;;;;;;5032116;28;20091;-72
2023/01/26 06:16:27;;;;;;;1.85;0.40;;;18.00;57.00;;;;;;5032967;28;20466;-72
2023/01/26 06:18:54;;;;;;;1.15;0.30;;;18.10;57.00;;;;;;5050898;28;20060;-72
2023/01/26 06:21:20;;;;;;;1.73;1.20;;;18.10;56.90;;;;;;5050339;28;20048;-72
2023/01/26 06:23:47;;;;;;;1.58;1.20;;;18.20;57.50;;;;;;5037180;28;20044;-72
2023/01/26 06:26:15;;;;;;;1.80;1.10;;;18.20;56.70;;;;;;5048658;28;20072;-72
2023/01/26 06:28:42;;;;;;;1.63;1.08;;;18.30;56.70;;;;;;5051815;28;20076;-72
2023/01/26 06:31:10;;;;;;;1.90;1.15;;;18.30;56.60;;;;;;5040169;28;20052;-72
2023/01/26 06:33:38;;;;;;;1.80;1.10;;;18.30;56.60;;;;;;5043765;28;20137;-72
2023/01/26 06:36:07;;;;;;;1.70;1.23;;;18.40;56.70;;;;;;5030213;28;20473;-72
2023/01/26 06:38:34;;;;;;;1.85;1.13;;;18.40;56.60;;;;;;5030259;28;20049;-72
2023/01/26 06:41:02;;;;;;;1.65;1.17;;;18.40;56.60;;;;;;5039793;28;20045;-72
2023/01/26 06:43:29;;;;;;;1.67;1.10;;;18.50;56.60;;;;;;5031487;28;20153;-72
2023/01/26 06:45:57;;;;;;;1.50;1.02;;;18.50;56.50;;;;;;5032519;28;20049;-72
2023/01/26 06:48:26;;;;;;;1.58;1.33;;;18.60;56.40;;;;;;5031671;28;20045;-73
2023/01/26 06:50:56;;;;;;;2.10;1.55;;;18.60;56.30;;;;;;5031331;28;20062;-72
2023/01/26 06:53:30;;;;;;;1.20;0.60;;;18.70;56.30;;;;;;5031816;28;20457;-73
2023/01/26 06:55:57;;;;;;;1.30;0.90;;;18.70;56.20;;;;;;5031326;28;20127;-72
2023/01/26 06:58:24;;;;;;;1.50;1.10;;;18.70;56.20;;;;;;5030484;28;20058;-72
2023/01/26 07:00:52;;;;;;;1.33;0.70;;;18.70;56.20;;;;;;5035249;28;20390;-72
2023/01/26 07:03:19;;;;;;;1.83;1.40;;;18.70;56.30;;;;;;5030935;28;20057;-72
2023/01/26 07:05:47;;;;;;;1.30;0.35;;;18.70;56.30;;;;;;5031248;28;20051;-72
2023/01/26 07:08:14;;;;;;;1.98;1.27;;;18.70;56.40;;;;;;5033612;28;20104;-72
2023/01/26 07:10:41;;;;;;;0.85;0.30;;;18.60;56.40;;;;;;5036469;28;20352;-72
2023/01/26 07:13:08;;;;;;;2.03;1.20;;;18.60;56.50;;;;;;5036606;28;20046;-72
2023/01/26 07:15:35;;;;;;;1.42;1.08;;;18.50;56.50;;;;;;5035218;28;20081;-72
2023/01/26 07:18:02;;;;;;;1.75;1.15;;;18.50;56.60;;;;;;5035021;28;20061;-72
2023/01/26 07:20:29;;;;;;;1.90;1.48;;;18.40;56.60;;;;;;5035308;28;20050;-72
2023/01/26 07:22:59;;;;;;;1.70;1.02;;;18.50;56.80;;;;;;5037127;28;20080;-72
2023/01/26 07:25:26;;;;;;;1.88;1.65;;;18.40;56.80;;;;;;5054129;28;20060;-72
2023/01/26 07:27:56;;;;;;;1.50;1.05;;;18.40;56.80;;;;;;5033725;28;20064;-72
2023/01/26 07:30:23;;;;;;;1.83;1.13;;;18.30;56.80;;;;;;5035023;28;20140;-72
2023/01/26 07:32:50;;;;;;;2.03;1.52;;;18.30;56.80;;;;;;5043511;28;20122;-72
2023/01/26 07:35:17;;;;;;;1.70;1.30;;;18.30;56.90;;;;;;5048287;28;20048;-73
2023/01/26 07:37:44;;;;;;;1.95;1.50;;;18.30;57.00;;;;;;5053525;28;20087;-72
2023/01/26 07:40:13;;;;;;;2.20;1.15;;;18.20;57.00;;;;;;5052271;28;20052;-72
2023/01/26 07:42:40;;;;;;;1.77;1.15;;;18.20;57.10;;;;;;5054889;28;20049;-73
2023/01/26 07:45:08;;;;;;;1.67;1.15;;;18.10;57.10;;;;;;5041066;28;20045;-73
2023/01/26 07:47:36;;;;;;;1.70;1.17;;;18.10;57.10;;;;;;5033446;28;20049;-73
2023/01/26 07:50:06;;;;;;;1.40;1.10;;;18.10;57.30;;;;;;5034761;28;20053;-73
2023/01/26 07:52:32;;;;;;;;;;;18.00;57.30;;;;;;5035040;28;20107;-73
2023/01/26 07:54:59;;;;;;;1.95;1.80;;;18.00;57.30;;;;;;5033335;28;19967;-73
2023/01/26 07:57:27;;;;;;;1.83;1.10;;;18.00;57.40;;;;;;5034265;28;20060;-73
2023/01/26 07:59:54;;;;;;;1.67;1.25;;;17.90;57.50;;;;;;5034551;28;20064;-72
2023/01/26 08:02:21;;;;;;;1.52;1.17;;;17.90;58.20;;;;;;5049812;28;20049;-73
2023/01/26 08:04:49;;;;;;;1.75;1.23;;;17.90;57.60;;;;;;5050987;28;20394;-73
2023/01/26 08:07:16;;;;;;;1.48;0.95;;;17.80;58.30;;;;;;5045204;28;20053;-73
2023/01/26 08:09:43;;;;;;;2.22;0.30;;;17.80;57.70;;;;;;5034057;28;20473;-72
2023/01/26 08:12:10;;;;;;;1.90;1.45;;;17.80;57.80;;;;;;5033266;28;20057;-72
2023/01/26 08:14:38;;;;;;;1.80;1.17;;;17.80;57.80;;;;;;5032658;28;20056;-72
2023/01/26 08:17:05;;;;;;;1.33;0.93;;;17.70;57.80;;;;;;5044866;28;20053;-72
2023/01/26 08:19:32;;;;;;;1.55;1.08;;;17.70;57.90;;;;;;5036995;28;20045;-72
2023/01/26 08:21:59;;;;;;;1.50;1.02;;;17.70;57.90;;;;;;5050921;28;20049;-73
2023/01/26 08:24:26;;;;;;;1.60;1.23;;;17.70;57.90;;;;;;5041030;28;20058;-72
2023/01/26 08:26:53;;;;;;;1.75;1.38;;;17.70;58.00;;;;;;5032780;28;20486;-72
2023/01/26 08:29:21;;;;;;;1.38;0.82;;;17.60;57.90;;;;;;5033038;28;20136;-72
2023/01/26 08:31:50;;;;;;;1.73;0.98;;;17.60;57.90;;;;;;5033835;28;20042;-72
2023/01/26 08:34:16;;;;;;;1.88;0.73;;;17.70;57.90;;;;;;5034027;28;20426;-72
2023/01/26 08:36:43;;;;;;;1.15;0.30;;;17.70;57.80;;;;;;5033648;28;20053;-72
2023/01/26 08:39:10;;;;;;;2.50;1.13;;;17.70;57.80;;;;;;5033903;28;20042;-72
2023/01/26 08:41:38;;;;;;;1.73;1.33;;;17.80;57.70;;;;;;5042999;28;20056;-72
2023/01/26 08:44:05;;;;;;;1.50;1.08;;;17.80;57.70;;;;;;5053785;28;20045;-72
2023/01/26 08:46:32;;;;;;;1.98;1.77;;;17.80;57.70;;;;;;5052397;28;20045;-72
2023/01/26 08:49:00;;;;;;;1.95;0.90;;;17.90;57.60;;;;;;5053760;28;20138;-72
2023/01/26 08:51:27;;;;;;;1.63;0.93;;;18.00;57.60;;;;;;5051022;28;20450;-72
2023/01/26 08:53:54;;;;;;;1.50;1.02;;;18.00;57.40;;;;;;5033615;28;20046;-72
2023/01/26 08:56:21;;;;;;;1.60;1.10;;;18.10;57.30;;;;;;5037823;28;20049;-72
2023/01/26 08:58:48;;;;;;;1.50;0.90;;;18.20;57.20;;;;;;5047538;28;20076;-72
2023/01/26 09:01:16;;;;;;;1.83;0.88;;;18.20;57.00;;;;;;5051011;28;20049;-72
2023/01/26 09:03:44;;;;;;;1.70;1.30;;;18.30;57.00;;;;;;5043743;28;20505;-73
2023/01/26 09:06:13;;;;;;;1.85;1.08;;;18.40;57.00;;;;;;5051783;28;20094;-72
2023/01/26 09:08:40;;;;;;;1.42;0.75;;;18.40;56.80;;;;;;5053366;28;20045;-72
2023/01/26 09:11:08;;;;;;;1.50;1.00;;;18.50;56.80;;;;;;5037112;28;20095;-72
2023/01/26 09:13:36;;;;;;;1.98;1.25;;;18.60;57.40;;;;;;5050358;28;20044;-72
2023/01/26 09:16:04;;;;;;;1.67;1.05;;;18.70;56.70;;;;;;5047127;28;20064;-72
2023/01/26 09:18:30;;;;;;;1.65;1.20;;;18.70;56.50;;;;;;5046101;28;20045;-73
2023/01/26 09:21:02;;;;;;;0.95;0.22;;;18.80;56.50;;;;;;5040638;28;20498;-73
2023/01/26 09:23:31;;;;;;;1.75;1.15;;;18.80;56.50;;;;;;5038481;28;20090;-72
2023/01/26 09:25:58;;;;;;;1.95;0.50;;;18.90;56.50;;;;;;5038996;28;20056;-72
2023/01/26 09:28:25;;;;;;;0.82;0.17;;;18.90;56.50;;;;;;5032807;28;20095;-72
2023/01/26 09:30:52;;;;;;;1.58;1.00;;;18.90;56.50;;;;;;5050282;28;20536;-72
2023/01/26 09:33:20;;;;;;;2.00;0.98;;;18.90;56.50;;;;;;5052576;28;20083;-72
2023/01/26 09:35:47;;;;;;;1.50;0.50;;;18.90;56.50;;;;;;5047601;28;20095;-72
2023/01/26 09:38:14;;;;;;;2.28;1.02;;;18.90;56.60;;;;;;5041994;28;20056;-73
2023/01/26 09:40:49;;;;;;;1.50;1.23;;;18.90;56.60;;;;;;5052322;28;20060;-72
2023/01/26 09:43:32;;;;;;;1.50;0.80;;;18.80;57.40;;;;;;5031534;28;20071;-72
2023/01/26 09:46:06;;;;;;;1.98;1.02;;;18.80;56.80;;;;;;5032704;28;20049;-72
2023/01/26 09:48:42;;;;;;;1.00;0.20;;;18.70;56.80;;;;;;5033167;28;20059;-72
2023/01/26 09:51:14;;;;;;;1.52;1.00;;;18.70;56.90;;;;;;5040979;28;20049;-72
2023/01/26 09:53:46;;;;;;;1.58;1.05;;;18.70;56.90;;;;;;5051182;28;20064;-72
2023/01/26 09:56:18;;;;;;;1.63;0.98;;;18.70;57.10;;;;;;5035781;28;20049;-73
2023/01/26 09:58:49;;;;;;;2.28;1.00;;;18.60;57.10;;;;;;5036688;28;20494;-72
2023/01/26 10:01:22;;;;;;;1.50;1.10;;;18.60;57.10;;;;;;5050766;28;20049;-72
2023/01/26 10:03:56;;;;;;;1.25;0.40;;;18.60;57.20;;;;;;5045779;28;20092;-72
2023/01/26 10:06:27;;;;;;;2.05;1.45;;;18.60;57.30;;;;;;5035687;28;20085;-72
2023/01/26 10:08:55;;;;;;;2.00;1.05;;;18.60;57.40;;;;;;5044630;28;20070;-72
2023/01/26 10:11:28;;;;;;;2.35;1.17;;;18.60;57.40;;;;;;5051496;28;20498;-72
2023/01/26 10:14:00;;;;;;;1.55;0.93;;;18.60;57.30;;;;;;5047155;28;20064;-72
2023/01/26 10:16:27;;;;;;;1.92;1.10;;;18.60;57.40;;;;;;5047945;28;20061;-72
2023/01/26 10:18:58;;;;;;;1.70;0.95;;;18.60;57.40;;;;;;5037221;28;20040;-72
2023/01/26 10:21:30;;;;;;;1.92;0.95;;;18.50;57.40;;;;;;5050784;28;20092;-72
2023/01/26 10:24:00;;;;;;;2.00;1.25;;;18.60;57.50;;;;;;5051658;28;20049;-72
2023/01/26 10:26:32;;;;;;;1.70;1.20;;;18.60;57.50;;;;;;5050598;28;20057;-72
2023/01/26 10:28:59;;;;;;;1.80;1.38;;;18.60;57.50;;;;;;5051707;28;20049;-72
2023/01/26 10:31:29;;;;;;;1.77;1.08;;;18.60;57.60;;;;;;5051837;28;20053;-72
2023/01/26 10:33:59;;;;;;;1.65;0.90;;;18.50;58.30;;;;;;5048655;28;20049;-72
2023/01/26 10:36:30;;;;;;;1.52;1.10;;;18.50;57.50;;;;;;5051903;28;20052;-72
2023/01/26 10:39:05;;;;;;;1.08;0.35;;;18.50;57.60;;;;;;5051637;28;20052;-72
2023/01/26 10:41:34;;;;;;;1.88;1.00;;;18.50;57.60;;;;;;5047326;28;20551;-72
2023/01/26 10:44:03;;;;;;;2.00;1.15;;;18.50;57.60;;;;;;5031517;28;20061;-72
2023/01/26 10:46:35;;;;;;;2.15;1.48;;;18.50;57.70;;;;;;5031695;28;20064;-72
2023/01/26 10:49:13;;;;;;;1.38;0.98;;;18.50;57.70;;;;;;5035608;28;20056;-72
2023/01/26 10:51:43;;;;;;;1.55;0.30;;;18.50;57.70;;;;;;5031680;28;20049;-72
2023/01/26 10:54:24;;;;;;;1.30;1.00;;;18.50;57.80;;;;;;5031202;28;20568;-72
2023/01/26 10:56:55;;;;;;;1.63;0.68;;;18.50;57.90;;;;;;5033778;28;20046;-72
2023/01/26 10:59:27;;;;;;;1.55;0.90;;;18.50;57.90;;;;;;5051093;28;20391;-72
2023/01/26 11:01:56;;;;;;;1.55;0.28;;;18.50;57.90;;;;;;5050319;28;20064;-72
2023/01/26 11:04:24;;;;;;;1.77;1.02;;;18.50;58.00;;;;;;5050160;28;20064;-72
2023/01/26 11:06:52;;;;;;;1.67;1.02;;;18.50;57.90;;;;;;5050305;28;20092;-72
2023/01/26 11:09:21;;;;;;;1.60;1.17;;;18.50;58.00;;;;;;5049759;28;20063;-72
2023/01/26 11:12:04;;;;;;;1.52;0.93;;;18.50;58.00;;;;;;5035082;28;20053;-72
2023/01/26 11:14:33;;;;;;;2.20;1.10;;;18.50;58.10;;;;;;5030195;28;20065;-72
2023/01/26 11:17:09;;;;;;;1.83;1.05;;;18.50;58.10;;;;;;5031342;28;20042;-72
2023/01/26 11:20:25;;;;;;;1.35;1.00;;;18.50;58.10;;;;;;5046464;28;20060;-72
2023/01/26 11:23:01;;;;;;;1.92;1.25;;;18.50;58.10;;;;;;4992861;28;20092;-72
2023/01/26 11:25:37;;;;;;;1.70;1.15;;;18.50;58.20;;;;;;5029459;28;20050;-72
2023/01/26 11:28:13;;;;;;;;;;;18.50;58.20;;;;;;5045079;28;20411;-72
2023/01/26 11:30:54;;;;;;;2.13;1.13;;;18.50;58.20;;;;;;5043135;28;19928;-72
2023/01/26 11:33:29;;;;;;;1.48;0.30;;;18.50;58.10;;;;;;5049960;28;20486;-72
2023/01/26 11:36:03;;;;;;;2.38;1.00;;;18.40;58.10;;;;;;5050006;28;20136;-72
2023/01/26 11:38:40;;;;;;;1.15;0.30;;;18.50;58.20;;;;;;5050660;28;20056;-72
2023/01/26 11:41:24;;;;;;;1.48;0.80;;;18.50;58.20;;;;;;5050799;28;20049;-72
2023/01/26 11:44:16;;;;;;;1.80;0.93;;;18.50;58.20;;;;;;5050074;28;20049;-72
2023/01/26 11:46:58;;;;;;;1.58;0.90;;;18.50;58.30;;;;;;5013118;28;20057;-72
2023/01/26 11:49:41;;;;;;;1.77;0.95;;;18.50;58.40;;;;;;5031113;28;20107;-72
2023/01/26 11:52:15;;;;;;;1.27;1.00;;;18.50;58.40;;;;;;5031138;28;20052;-72
2023/01/26 11:55:05;;;;;;;1.75;0.82;;;18.50;58.40;;;;;;5034697;28;20045;-72
2023/01/26 11:57:41;;;;;;;1.45;0.93;;;18.40;58.40;;;;;;5033408;28;20060;-72
2023/01/26 12:00:19;;;;;;;1.52;1.08;;;18.50;58.40;;;;;;5033038;28;20053;-72
2023/01/26 12:02:53;;;;;;;2.13;1.02;;;18.50;58.50;;;;;;5034638;28;20045;-72
2023/01/26 12:05:24;;;;;;;2.10;1.17;;;18.50;58.50;;;;;;5049505;28;20057;-72
2023/01/26 12:07:55;;;;;;;1.67;1.05;;;18.50;58.50;;;;;;5034370;28;20058;-72
2023/01/26 12:10:28;;;;;;;1.52;1.02;;;18.50;58.50;;;;;;5032991;28;20053;-72
2023/01/26 12:13:01;;;;;;;1.60;1.10;;;18.50;58.60;;;;;;5034573;28;20064;-72
2023/01/26 12:15:33;;;;;;;1.80;0.85;;;18.50;58.50;;;;;;5035511;28;20164;-72
2023/01/26 12:18:14;;;;;;;1.20;0.30;;;18.50;58.60;;;;;;5034183;28;20418;-72
2023/01/26 12:20:44;;;;;;;1.98;1.00;;;18.50;58.70;;;;;;5034317;28;20139;-72
2023/01/26 12:23:16;;;;;;;2.28;0.88;;;18.50;58.60;;;;;;5051802;28;20099;-72
2023/01/26 12:25:46;;;;;;;2.13;1.30;;;18.50;58.70;;;;;;5054351;28;20120;-72
2023/01/26 12:28:20;;;;;;;2.00;1.13;;;18.50;59.40;;;;;;5052432;28;20053;-71
2023/01/26 12:30:55;;;;;;;1.80;1.23;;;18.50;58.70;;;;;;5052714;28;20049;-72
2023/01/26 12:33:22;;;;;;;2.53;1.40;;;18.50;58.80;;;;;;5052671;28;20057;-72
2023/01/26 12:36:06;;;;;;;1.50;1.08;;;18.50;58.80;;;;;;5050790;28;20057;-72
2023/01/26 12:38:42;;;;;;;1.85;0.63;;;18.50;58.80;;;;;;5052912;28;20398;-72
2023/01/26 12:41:16;;;;;;;2.20;1.50;;;18.50;59.50;;;;;;5032389;28;20487;-72
2023/01/26 12:44:03;;;;;;;1.92;1.35;;;18.50;58.80;;;;;;5033524;28;20486;-72
2023/01/26 12:46:37;;;;;;;1.73;1.20;;;18.50;58.80;;;;;;5049395;28;20053;-72
2023/01/26 12:49:11;;;;;;;1.63;0.88;;;18.50;58.80;;;;;;5053635;28;20045;-72
2023/01/26 12:51:41;;;;;;;1.73;1.00;;;18.50;58.80;;;;;;5037472;28;20053;-72
2023/01/26 12:54:16;;;;;;;1.73;1.15;;;18.50;58.80;;;;;;5032400;28;20403;-72
2023/01/26 12:56:47;;;;;;;2.67;1.30;;;18.50;58.80;;;;;;5033526;28;20056;-72
2023/01/26 12:59:19;;;;;;;1.95;1.38;;;18.50;58.80;;;;;;5033324;28;20129;-72
2023/01/26 13:01:48;;;;;;;1.13;0.22;;;18.50;58.90;;;;;;5033171;28;20049;-72
2023/01/26 13:04:16;;;;;;;1.92;1.30;;;18.50;58.90;;;;;;5031837;28;20494;-72
2023/01/26 13:06:43;;;;;;;2.08;1.38;;;18.50;58.90;;;;;;5050225;28;20057;-72
2023/01/26 13:09:22;;;;;;;1.13;0.30;;;18.50;59.00;;;;;;5052996;28;20057;-72
2023/01/26 13:11:51;;;;;;;1.40;0.50;;;18.40;59.00;;;;;;5051920;28;20508;-72
2023/01/26 13:14:36;;;;;;;1.52;0.50;;;18.40;59.10;;;;;;5038694;28;20453;-72
2023/01/26 13:17:54;;;;;;;1.50;1.05;;;18.40;59.10;;;;;;5032045;28;20104;-72
2023/01/26 13:20:27;;;;;;;1.50;0.95;;;18.40;59.10;;;;;;5032761;28;20137;-72
2023/01/26 13:22:56;;;;;;;1.92;0.88;;;18.30;59.10;;;;;;5031766;28;20133;-72
2023/01/26 13:25:31;;;;;;;1.42;0.40;;;18.30;59.20;;;;;;5031977;28;20057;-72
2023/01/26 13:28:00;;;;;;;1.45;0.98;;;18.30;59.30;;;;;;5040267;28;20048;-72
2023/01/26 13:30:44;;;;;;;1.33;0.32;;;18.30;59.30;;;;;;5037029;28;20417;-72
2023/01/26 13:33:15;;;;;;;1.95;1.35;;;18.30;59.30;;;;;;5031704;28;20093;-72
2023/01/26 13:35:45;;;;;;;1.88;1.00;;;18.20;59.90;;;;;;5031644;28;20052;-72
2023/01/26 13:38:18;;;;;;;1.77;0.65;;;18.20;59.30;;;;;;5031286;28;20456;-72
2023/01/26 13:40:48;;;;;;;1.60;0.98;;;18.20;59.40;;;;;;5044432;28;20136;-72
2023/01/26 13:43:21;;;;;;;1.23;0.22;;;18.20;59.40;;;;;;5032437;28;20458;-72
2023/01/26 13:46:19;;;;;;;2.38;0.40;;;18.20;59.40;;;;;;5043143;28;20527;-72
2023/01/26 13:48:48;;;;;;;2.20;1.00;;;18.20;59.40;;;;;;5026746;28;20068;-72
2023/01/26 13:51:20;;;;;;;1.10;0.20;;;18.10;59.40;;;;;;5051251;28;20504;-72